sensor_id;sensor_type;location;lat;lon;timestamp;temperature;humidity
37788;DHT22;23627;53.302;-6.362;2024-01-06T00:01:42;4.80;99.90
37788;DHT22;23627;53.302;-6.362;2024-01-06T00:04:07;4.70;99.90
37788;DHT22;23627;53.302;-6.362;2024-01-06T00:06:33;4.70;99.90
37788;DHT22;23627;53.302;-6.362;2024-01-06T00:08:59;4.70;99.90
37788;DHT22;23627;53.302;-6.362;2024-01-06T00:11:24;4.70;99.90
37788;DHT22;23627;53.302;-6.362;2024-01-06T00:13:50;4.70;99.90
37788;DHT22;23627;53.302;-6.362;2024-01-06T00:16:20;4.70;99.90
37788;DHT22;23627;53.302;-6.362;2024-01-06T00:18:46;4.70;99.90
37788;DHT22;23627;53.302;-6.362;2024-01-06T00:21:12;4.70;99.90
37788;DHT22;23627;53.302;-6.362;2024-01-06T00:23:40;4.70;99.90
37788;DHT22;23627;53.302;-6.362;2024-01-06T00:26:06;4.70;99.90
37788;DHT22;23627;53.302;-6.362;2024-01-06T00:28:32;4.70;99.90
37788;DHT22;23627;53.302;-6.362;2024-01-06T00:30:57;4.70;99.90
37788;DHT22;23627;53.302;-6.362;2024-01-06T00:33:23;4.70;99.90
37788;DHT22;23627;53.302;-6.362;2024-01-06T00:35:49;4.60;99.90
37788;DHT22;23627;53.302;-6.362;2024-01-06T00:38:14;4.70;99.90
37788;DHT22;23627;53.302;-6.362;2024-01-06T00:40:40;4.60;99.90
37788;DHT22;23627;53.302;-6.362;2024-01-06T00:43:06;4.60;99.90
37788;DHT22;23627;53.302;-6.362;2024-01-06T00:45:31;4.60;99.90
37788;DHT22;23627;53.302;-6.362;2024-01-06T00:47:57;4.60;99.90
37788;DHT22;23627;53.302;-6.362;2024-01-06T00:50:23;4.60;99.90
37788;DHT22;23627;53.302;-6.362;2024-01-06T00:52:49;4.60;99.90
37788;DHT22;23627;53.302;-6.362;2024-01-06T00:55:18;4.60;99.90
37788;DHT22;23627;53.302;-6.362;2024-01-06T00:57:44;4.60;99.90
37788;DHT22;23627;53.302;-6.362;2024-01-06T01:00:11;4.50;99.90
37788;DHT22;23627;53.302;-6.362;2024-01-06T01:02:37;4.50;99.90
37788;DHT22;23627;53.302;-6.362;2024-01-06T01:05:02;4.50;99.90
37788;DHT22;23627;53.302;-6.362;2024-01-06T01:07:28;4.50;99.90
37788;DHT22;23627;53.302;-6.362;2024-01-06T01:09:54;4.50;99.90
37788;DHT22;23627;53.302;-6.362;2024-01-06T01:12:22;4.50;99.90
37788;DHT22;23627;53.302;-6.362;2024-01-06T01:14:47;4.50;99.90
37788;DHT22;23627;53.302;-6.362;2024-01-06T01:17:13;4.50;99.90
37788;DHT22;23627;53.302;-6.362;2024-01-06T01:19:39;4.50;99.90
37788;DHT22;23627;53.302;-6.362;2024-01-06T01:22:05;4.50;99.90
37788;DHT22;23627;53.302;-6.362;2024-01-06T01:24:30;4.50;99.90
37788;DHT22;23627;53.302;-6.362;2024-01-06T01:26:56;4.50;99.90
37788;DHT22;23627;53.302;-6.362;2024-01-06T01:29:22;4.40;99.90
37788;DHT22;23627;53.302;-6.362;2024-01-06T01:31:47;4.40;99.90
37788;DHT22;23627;53.302;-6.362;2024-01-06T01:34:13;4.40;99.90
37788;DHT22;23627;53.302;-6.362;2024-01-06T01:36:39;4.40;99.90
37788;DHT22;23627;53.302;-6.362;2024-01-06T01:39:05;4.40;99.90
37788;DHT22;23627;53.302;-6.362;2024-01-06T01:41:31;4.40;99.90
37788;DHT22;23627;53.302;-6.362;2024-01-06T01:43:56;4.40;99.90
37788;DHT22;23627;53.302;-6.362;2024-01-06T01:46:29;4.40;99.90
37788;DHT22;23627;53.302;-6.362;2024-01-06T01:48:55;4.40;99.90
37788;DHT22;23627;53.302;-6.362;2024-01-06T01:51:22;4.40;99.90
37788;DHT22;23627;53.302;-6.362;2024-01-06T01:53:49;4.40;99.90
37788;DHT22;23627;53.302;-6.362;2024-01-06T01:56:16;4.40;99.90
37788;DHT22;23627;53.302;-6.362;2024-01-06T01:58:42;4.30;99.90
37788;DHT22;23627;53.302;-6.362;2024-01-06T02:01:08;4.30;99.90
37788;DHT22;23627;53.302;-6.362;2024-01-06T02:03:35;4.30;99.90
37788;DHT22;23627;53.302;-6.362;2024-01-06T02:06:01;4.30;99.90
37788;DHT22;23627;53.302;-6.362;2024-01-06T02:08:27;4.30;99.90
37788;DHT22;23627;53.302;-6.362;2024-01-06T02:10:55;4.30;99.90
37788;DHT22;23627;53.302;-6.362;2024-01-06T02:13:22;4.30;99.90
37788;DHT22;23627;53.302;-6.362;2024-01-06T02:15:48;4.30;99.90
37788;DHT22;23627;53.302;-6.362;2024-01-06T02:18:13;4.30;99.90
37788;DHT22;23627;53.302;-6.362;2024-01-06T02:20:44;4.30;99.90
37788;DHT22;23627;53.302;-6.362;2024-01-06T02:23:12;4.30;99.90
37788;DHT22;23627;53.302;-6.362;2024-01-06T02:25:37;4.30;99.90
37788;DHT22;23627;53.302;-6.362;2024-01-06T02:28:03;4.30;99.90
37788;DHT22;23627;53.302;-6.362;2024-01-06T02:30:29;4.30;99.90
37788;DHT22;23627;53.302;-6.362;2024-01-06T02:32:55;4.30;99.90
37788;DHT22;23627;53.302;-6.362;2024-01-06T02:35:20;4.30;99.90
37788;DHT22;23627;53.302;-6.362;2024-01-06T02:37:46;4.20;99.90
37788;DHT22;23627;53.302;-6.362;2024-01-06T02:40:13;4.20;99.90
37788;DHT22;23627;53.302;-6.362;2024-01-06T02:42:39;4.20;99.90
37788;DHT22;23627;53.302;-6.362;2024-01-06T02:45:05;4.20;99.90
37788;DHT22;23627;53.302;-6.362;2024-01-06T02:47:31;4.20;99.90
37788;DHT22;23627;53.302;-6.362;2024-01-06T02:49:56;4.20;99.90
37788;DHT22;23627;53.302;-6.362;2024-01-06T02:52:22;4.20;99.90
37788;DHT22;23627;53.302;-6.362;2024-01-06T02:54:48;4.20;99.90
37788;DHT22;23627;53.302;-6.362;2024-01-06T02:57:14;4.20;99.90
37788;DHT22;23627;53.302;-6.362;2024-01-06T02:59:40;4.10;99.90
37788;DHT22;23627;53.302;-6.362;2024-01-06T03:02:06;4.20;99.90
37788;DHT22;23627;53.302;-6.362;2024-01-06T03:04:32;4.10;99.90
37788;DHT22;23627;53.302;-6.362;2024-01-06T03:06:57;4.10;99.90
37788;DHT22;23627;53.302;-6.362;2024-01-06T03:09:23;4.10;99.90
37788;DHT22;23627;53.302;-6.362;2024-01-06T03:11:49;4.10;99.90
37788;DHT22;23627;53.302;-6.362;2024-01-06T03:14:15;4.10;99.90
37788;DHT22;23627;53.302;-6.362;2024-01-06T03:16:40;4.10;99.90
37788;DHT22;23627;53.302;-6.362;2024-01-06T03:19:06;4.10;99.90
37788;DHT22;23627;53.302;-6.362;2024-01-06T03:21:32;4.10;99.90
37788;DHT22;23627;53.302;-6.362;2024-01-06T03:23:57;4.10;99.90
37788;DHT22;23627;53.302;-6.362;2024-01-06T03:26:23;4.10;99.90
37788;DHT22;23627;53.302;-6.362;2024-01-06T03:28:50;4.10;99.90
37788;DHT22;23627;53.302;-6.362;2024-01-06T03:31:15;4.10;99.90
37788;DHT22;23627;53.302;-6.362;2024-01-06T03:33:43;4.10;99.90
37788;DHT22;23627;53.302;-6.362;2024-01-06T03:36:12;4.10;99.90
37788;DHT22;23627;53.302;-6.362;2024-01-06T03:38:37;4.00;99.90
37788;DHT22;23627;53.302;-6.362;2024-01-06T03:41:03;4.00;99.90
37788;DHT22;23627;53.302;-6.362;2024-01-06T03:43:29;4.00;99.90
37788;DHT22;23627;53.302;-6.362;2024-01-06T03:45:54;4.10;99.90
37788;DHT22;23627;53.302;-6.362;2024-01-06T03:48:22;4.00;99.90
37788;DHT22;23627;53.302;-6.362;2024-01-06T03:50:47;4.00;99.90
37788;DHT22;23627;53.302;-6.362;2024-01-06T03:53:13;4.00;99.90
37788;DHT22;23627;53.302;-6.362;2024-01-06T03:55:39;4.00;99.90
37788;DHT22;23627;53.302;-6.362;2024-01-06T03:58:05;4.00;99.90
37788;DHT22;23627;53.302;-6.362;2024-01-06T04:00:31;4.00;99.90
37788;DHT22;23627;53.302;-6.362;2024-01-06T04:02:57;4.00;99.90
37788;DHT22;23627;53.302;-6.362;2024-01-06T04:05:22;4.00;99.90
37788;DHT22;23627;53.302;-6.362;2024-01-06T04:07:48;4.00;99.90
37788;DHT22;23627;53.302;-6.362;2024-01-06T04:10:14;4.00;99.90
37788;DHT22;23627;53.302;-6.362;2024-01-06T04:12:40;4.00;99.90
37788;DHT22;23627;53.302;-6.362;2024-01-06T04:15:06;4.00;99.90
37788;DHT22;23627;53.302;-6.362;2024-01-06T04:17:32;4.00;99.90
37788;DHT22;23627;53.302;-6.362;2024-01-06T04:19:57;4.00;99.90
37788;DHT22;23627;53.302;-6.362;2024-01-06T04:22:23;4.00;99.90
37788;DHT22;23627;53.302;-6.362;2024-01-06T04:24:49;4.00;99.90
37788;DHT22;23627;53.302;-6.362;2024-01-06T04:27:15;4.00;99.90
37788;DHT22;23627;53.302;-6.362;2024-01-06T04:29:41;4.00;99.90
37788;DHT22;23627;53.302;-6.362;2024-01-06T04:32:06;3.90;99.90
37788;DHT22;23627;53.302;-6.362;2024-01-06T04:34:33;4.00;99.90
37788;DHT22;23627;53.302;-6.362;2024-01-06T04:36:59;3.90;99.90
37788;DHT22;23627;53.302;-6.362;2024-01-06T04:39:24;3.90;99.90
37788;DHT22;23627;53.302;-6.362;2024-01-06T04:41:50;3.90;99.90
37788;DHT22;23627;53.302;-6.362;2024-01-06T04:44:17;3.90;99.90
37788;DHT22;23627;53.302;-6.362;2024-01-06T04:46:43;3.90;99.90
37788;DHT22;23627;53.302;-6.362;2024-01-06T04:49:09;3.90;99.90
37788;DHT22;23627;53.302;-6.362;2024-01-06T04:51:35;3.90;99.90
37788;DHT22;23627;53.302;-6.362;2024-01-06T04:54:01;3.90;99.90
37788;DHT22;23627;53.302;-6.362;2024-01-06T04:56:26;3.80;99.90
37788;DHT22;23627;53.302;-6.362;2024-01-06T04:58:52;3.80;99.90
37788;DHT22;23627;53.302;-6.362;2024-01-06T05:01:18;3.80;99.90
37788;DHT22;23627;53.302;-6.362;2024-01-06T05:03:43;3.80;99.90
37788;DHT22;23627;53.302;-6.362;2024-01-06T05:06:09;3.80;99.90
37788;DHT22;23627;53.302;-6.362;2024-01-06T05:08:35;3.80;99.90
37788;DHT22;23627;53.302;-6.362;2024-01-06T05:11:04;3.80;99.90
37788;DHT22;23627;53.302;-6.362;2024-01-06T05:13:30;3.80;99.90
37788;DHT22;23627;53.302;-6.362;2024-01-06T05:15:56;3.80;99.90
37788;DHT22;23627;53.302;-6.362;2024-01-06T05:18:22;3.80;99.90
37788;DHT22;23627;53.302;-6.362;2024-01-06T05:20:47;3.80;99.90
37788;DHT22;23627;53.302;-6.362;2024-01-06T05:23:13;3.80;99.90
37788;DHT22;23627;53.302;-6.362;2024-01-06T05:25:39;3.80;99.90
37788;DHT22;23627;53.302;-6.362;2024-01-06T05:28:05;3.80;99.90
37788;DHT22;23627;53.302;-6.362;2024-01-06T05:30:30;3.80;99.90
37788;DHT22;23627;53.302;-6.362;2024-01-06T05:32:56;3.80;99.90
37788;DHT22;23627;53.302;-6.362;2024-01-06T05:35:22;3.80;99.90
37788;DHT22;23627;53.302;-6.362;2024-01-06T05:37:48;3.70;99.90
37788;DHT22;23627;53.302;-6.362;2024-01-06T05:40:14;3.80;99.90
37788;DHT22;23627;53.302;-6.362;2024-01-06T05:42:40;3.80;99.90
37788;DHT22;23627;53.302;-6.362;2024-01-06T05:45:06;3.70;99.90
37788;DHT22;23627;53.302;-6.362;2024-01-06T05:47:32;3.70;99.90
37788;DHT22;23627;53.302;-6.362;2024-01-06T05:49:57;3.70;99.90
37788;DHT22;23627;53.302;-6.362;2024-01-06T05:52:23;3.70;99.90
37788;DHT22;23627;53.302;-6.362;2024-01-06T05:54:49;3.70;99.90
37788;DHT22;23627;53.302;-6.362;2024-01-06T05:57:15;3.70;99.90
37788;DHT22;23627;53.302;-6.362;2024-01-06T05:59:41;3.70;99.90
37788;DHT22;23627;53.302;-6.362;2024-01-06T06:02:06;3.70;99.90
37788;DHT22;23627;53.302;-6.362;2024-01-06T06:04:32;3.70;99.90
37788;DHT22;23627;53.302;-6.362;2024-01-06T06:06:58;3.80;99.90
37788;DHT22;23627;53.302;-6.362;2024-01-06T06:09:23;3.80;99.90
37788;DHT22;23627;53.302;-6.362;2024-01-06T06:11:49;3.80;99.90
37788;DHT22;23627;53.302;-6.362;2024-01-06T06:14:14;3.80;99.90
37788;DHT22;23627;53.302;-6.362;2024-01-06T06:16:40;3.80;99.90
37788;DHT22;23627;53.302;-6.362;2024-01-06T06:19:06;3.80;99.90
37788;DHT22;23627;53.302;-6.362;2024-01-06T06:21:33;3.80;99.90
37788;DHT22;23627;53.302;-6.362;2024-01-06T06:23:59;3.80;99.90
37788;DHT22;23627;53.302;-6.362;2024-01-06T06:26:26;3.80;99.90
37788;DHT22;23627;53.302;-6.362;2024-01-06T06:28:52;3.80;99.90
37788;DHT22;23627;53.302;-6.362;2024-01-06T06:31:18;3.80;99.90
37788;DHT22;23627;53.302;-6.362;2024-01-06T06:33:43;3.80;99.90
37788;DHT22;23627;53.302;-6.362;2024-01-06T06:36:10;3.90;99.90
37788;DHT22;23627;53.302;-6.362;2024-01-06T06:38:35;3.80;99.90
37788;DHT22;23627;53.302;-6.362;2024-01-06T06:41:01;3.90;99.90
37788;DHT22;23627;53.302;-6.362;2024-01-06T06:43:27;3.90;99.90
37788;DHT22;23627;53.302;-6.362;2024-01-06T06:45:53;3.90;99.90
37788;DHT22;23627;53.302;-6.362;2024-01-06T06:48:21;3.90;99.90
37788;DHT22;23627;53.302;-6.362;2024-01-06T06:50:47;3.90;99.90
37788;DHT22;23627;53.302;-6.362;2024-01-06T06:53:13;3.90;99.90
37788;DHT22;23627;53.302;-6.362;2024-01-06T06:55:39;3.90;99.90
37788;DHT22;23627;53.302;-6.362;2024-01-06T06:58:06;3.90;99.90
37788;DHT22;23627;53.302;-6.362;2024-01-06T07:00:32;3.90;99.90
37788;DHT22;23627;53.302;-6.362;2024-01-06T07:02:58;3.90;99.90
37788;DHT22;23627;53.302;-6.362;2024-01-06T07:05:24;3.90;99.90
37788;DHT22;23627;53.302;-6.362;2024-01-06T07:07:49;3.90;99.90
37788;DHT22;23627;53.302;-6.362;2024-01-06T07:10:15;3.90;99.90
37788;DHT22;23627;53.302;-6.362;2024-01-06T07:12:41;3.90;99.90
37788;DHT22;23627;53.302;-6.362;2024-01-06T07:15:07;3.90;99.90
37788;DHT22;23627;53.302;-6.362;2024-01-06T07:17:35;3.90;99.90
37788;DHT22;23627;53.302;-6.362;2024-01-06T07:20:02;3.90;99.90
37788;DHT22;23627;53.302;-6.362;2024-01-06T07:22:28;3.90;99.90
37788;DHT22;23627;53.302;-6.362;2024-01-06T07:24:54;3.90;99.90
37788;DHT22;23627;53.302;-6.362;2024-01-06T07:27:19;3.90;99.90
37788;DHT22;23627;53.302;-6.362;2024-01-06T07:29:46;3.90;99.90
37788;DHT22;23627;53.302;-6.362;2024-01-06T07:32:11;3.90;99.90
37788;DHT22;23627;53.302;-6.362;2024-01-06T07:34:37;3.90;99.90
37788;DHT22;23627;53.302;-6.362;2024-01-06T07:37:03;3.90;99.90
37788;DHT22;23627;53.302;-6.362;2024-01-06T07:39:29;3.90;99.90
37788;DHT22;23627;53.302;-6.362;2024-01-06T07:41:54;3.90;99.90
37788;DHT22;23627;53.302;-6.362;2024-01-06T07:44:20;3.90;99.90
37788;DHT22;23627;53.302;-6.362;2024-01-06T07:46:53;3.90;99.90
37788;DHT22;23627;53.302;-6.362;2024-01-06T07:49:19;3.90;99.90
37788;DHT22;23627;53.302;-6.362;2024-01-06T07:51:44;3.90;99.90
37788;DHT22;23627;53.302;-6.362;2024-01-06T07:54:10;3.90;99.90
37788;DHT22;23627;53.302;-6.362;2024-01-06T07:56:37;3.90;99.90
37788;DHT22;23627;53.302;-6.362;2024-01-06T07:59:03;3.90;99.90
37788;DHT22;23627;53.302;-6.362;2024-01-06T08:01:30;3.90;99.90
37788;DHT22;23627;53.302;-6.362;2024-01-06T08:03:55;3.90;99.90
37788;DHT22;23627;53.302;-6.362;2024-01-06T08:06:21;3.90;99.90
37788;DHT22;23627;53.302;-6.362;2024-01-06T08:08:47;3.90;99.90
37788;DHT22;23627;53.302;-6.362;2024-01-06T08:11:12;3.90;99.90
37788;DHT22;23627;53.302;-6.362;2024-01-06T08:13:38;3.80;99.90
37788;DHT22;23627;53.302;-6.362;2024-01-06T08:16:05;3.80;99.90
37788;DHT22;23627;53.302;-6.362;2024-01-06T08:18:31;3.80;99.90
37788;DHT22;23627;53.302;-6.362;2024-01-06T08:20:56;3.80;99.90
37788;DHT22;23627;53.302;-6.362;2024-01-06T08:23:22;3.80;99.90
37788;DHT22;23627;53.302;-6.362;2024-01-06T08:25:48;3.80;99.90
37788;DHT22;23627;53.302;-6.362;2024-01-06T08:28:14;3.80;99.90
37788;DHT22;23627;53.302;-6.362;2024-01-06T08:30:40;3.80;99.90
37788;DHT22;23627;53.302;-6.362;2024-01-06T08:33:06;3.80;99.90
37788;DHT22;23627;53.302;-6.362;2024-01-06T08:35:32;3.80;99.90
37788;DHT22;23627;53.302;-6.362;2024-01-06T08:37:57;3.80;99.90
37788;DHT22;23627;53.302;-6.362;2024-01-06T08:40:23;3.80;99.90
37788;DHT22;23627;53.302;-6.362;2024-01-06T08:42:49;3.80;99.90
37788;DHT22;23627;53.302;-6.362;2024-01-06T08:45:15;3.80;99.90
37788;DHT22;23627;53.302;-6.362;2024-01-06T08:47:41;3.80;99.90
37788;DHT22;23627;53.302;-6.362;2024-01-06T08:50:07;3.80;99.90
37788;DHT22;23627;53.302;-6.362;2024-01-06T08:52:33;3.80;99.90
37788;DHT22;23627;53.302;-6.362;2024-01-06T08:54:58;3.80;99.90
37788;DHT22;23627;53.302;-6.362;2024-01-06T08:57:24;3.80;99.90
37788;DHT22;23627;53.302;-6.362;2024-01-06T08:59:50;3.80;99.90
37788;DHT22;23627;53.302;-6.362;2024-01-06T09:02:15;3.80;99.90
37788;DHT22;23627;53.302;-6.362;2024-01-06T09:04:41;3.80;99.90
37788;DHT22;23627;53.302;-6.362;2024-01-06T09:07:07;3.80;99.90
37788;DHT22;23627;53.302;-6.362;2024-01-06T09:09:33;3.80;99.90
37788;DHT22;23627;53.302;-6.362;2024-01-06T09:11:58;3.80;99.90
37788;DHT22;23627;53.302;-6.362;2024-01-06T09:14:26;3.80;99.90
37788;DHT22;23627;53.302;-6.362;2024-01-06T09:16:52;3.80;99.90
37788;DHT22;23627;53.302;-6.362;2024-01-06T09:19:17;3.80;99.90
37788;DHT22;23627;53.302;-6.362;2024-01-06T09:21:43;3.80;99.90
37788;DHT22;23627;53.302;-6.362;2024-01-06T09:24:09;3.80;99.90
37788;DHT22;23627;53.302;-6.362;2024-01-06T09:26:34;3.80;99.90
37788;DHT22;23627;53.302;-6.362;2024-01-06T09:29:01;3.80;99.90
37788;DHT22;23627;53.302;-6.362;2024-01-06T09:31:27;3.80;99.90
37788;DHT22;23627;53.302;-6.362;2024-01-06T09:33:53;3.80;99.90
37788;DHT22;23627;53.302;-6.362;2024-01-06T09:36:18;3.90;99.90
37788;DHT22;23627;53.302;-6.362;2024-01-06T09:38:44;3.90;99.90
37788;DHT22;23627;53.302;-6.362;2024-01-06T09:41:10;3.90;99.90
37788;DHT22;23627;53.302;-6.362;2024-01-06T09:43:36;3.90;99.90
37788;DHT22;23627;53.302;-6.362;2024-01-06T09:46:17;3.90;99.90
37788;DHT22;23627;53.302;-6.362;2024-01-06T09:48:48;3.90;99.90
37788;DHT22;23627;53.302;-6.362;2024-01-06T09:51:19;3.90;99.90
37788;DHT22;23627;53.302;-6.362;2024-01-06T09:53:58;3.90;99.90
37788;DHT22;23627;53.302;-6.362;2024-01-06T09:56:26;3.90;99.90
37788;DHT22;23627;53.302;-6.362;2024-01-06T09:58:52;4.00;99.90
37788;DHT22;23627;53.302;-6.362;2024-01-06T10:01:18;4.00;99.90
37788;DHT22;23627;53.302;-6.362;2024-01-06T10:03:44;4.00;99.90
37788;DHT22;23627;53.302;-6.362;2024-01-06T10:06:14;4.00;99.90
37788;DHT22;23627;53.302;-6.362;2024-01-06T10:08:51;4.00;99.90
37788;DHT22;23627;53.302;-6.362;2024-01-06T10:11:17;4.00;99.90
37788;DHT22;23627;53.302;-6.362;2024-01-06T10:13:43;4.10;99.90
37788;DHT22;23627;53.302;-6.362;2024-01-06T10:16:09;4.10;99.90
37788;DHT22;23627;53.302;-6.362;2024-01-06T10:18:35;4.10;99.90
37788;DHT22;23627;53.302;-6.362;2024-01-06T10:21:05;4.20;99.90
37788;DHT22;23627;53.302;-6.362;2024-01-06T10:23:32;4.20;99.90
37788;DHT22;23627;53.302;-6.362;2024-01-06T10:25:58;4.20;99.90
37788;DHT22;23627;53.302;-6.362;2024-01-06T10:28:24;4.30;99.90
37788;DHT22;23627;53.302;-6.362;2024-01-06T10:30:55;4.30;99.90
37788;DHT22;23627;53.302;-6.362;2024-01-06T10:33:22;4.30;99.90
37788;DHT22;23627;53.302;-6.362;2024-01-06T10:35:49;4.30;99.90
37788;DHT22;23627;53.302;-6.362;2024-01-06T10:38:15;4.40;99.90
37788;DHT22;23627;53.302;-6.362;2024-01-06T10:41:03;4.40;99.90
37788;DHT22;23627;53.302;-6.362;2024-01-06T10:43:33;4.40;99.90
37788;DHT22;23627;53.302;-6.362;2024-01-06T10:46:03;4.50;99.90
37788;DHT22;23627;53.302;-6.362;2024-01-06T10:48:34;4.50;99.90
37788;DHT22;23627;53.302;-6.362;2024-01-06T10:51:00;4.50;99.90
37788;DHT22;23627;53.302;-6.362;2024-01-06T10:53:28;4.60;99.90
37788;DHT22;23627;53.302;-6.362;2024-01-06T10:55:55;4.60;99.90
37788;DHT22;23627;53.302;-6.362;2024-01-06T10:58:21;4.70;99.90
37788;DHT22;23627;53.302;-6.362;2024-01-06T11:00:47;4.70;99.90
37788;DHT22;23627;53.302;-6.362;2024-01-06T11:03:14;4.70;99.90
37788;DHT22;23627;53.302;-6.362;2024-01-06T11:05:41;4.70;99.90
37788;DHT22;23627;53.302;-6.362;2024-01-06T11:08:10;4.80;99.90
37788;DHT22;23627;53.302;-6.362;2024-01-06T11:10:37;4.80;99.90
37788;DHT22;23627;53.302;-6.362;2024-01-06T11:13:12;4.80;99.90
37788;DHT22;23627;53.302;-6.362;2024-01-06T11:15:46;4.90;99.90
37788;DHT22;23627;53.302;-6.362;2024-01-06T11:18:33;4.90;99.90
37788;DHT22;23627;53.302;-6.362;2024-01-06T11:26:32;5.00;99.90
37788;DHT22;23627;53.302;-6.362;2024-01-06T11:29:00;5.10;99.90
37788;DHT22;23627;53.302;-6.362;2024-01-06T11:31:31;5.10;99.90
37788;DHT22;23627;53.302;-6.362;2024-01-06T11:34:12;5.10;99.90
37788;DHT22;23627;53.302;-6.362;2024-01-06T11:36:40;5.20;99.90
37788;DHT22;23627;53.302;-6.362;2024-01-06T11:39:06;5.20;99.90
37788;DHT22;23627;53.302;-6.362;2024-01-06T11:41:50;5.20;99.90
37788;DHT22;23627;53.302;-6.362;2024-01-06T11:44:23;5.30;99.90
37788;DHT22;23627;53.302;-6.362;2024-01-06T11:46:49;5.30;99.90
37788;DHT22;23627;53.302;-6.362;2024-01-06T11:49:20;5.30;99.90
37788;DHT22;23627;53.302;-6.362;2024-01-06T11:51:46;5.30;99.90
37788;DHT22;23627;53.302;-6.362;2024-01-06T11:54:12;5.40;99.90
37788;DHT22;23627;53.302;-6.362;2024-01-06T11:56:38;5.40;99.90
37788;DHT22;23627;53.302;-6.362;2024-01-06T11:59:05;5.40;99.90
37788;DHT22;23627;53.302;-6.362;2024-01-06T12:01:37;5.50;99.90
37788;DHT22;23627;53.302;-6.362;2024-01-06T12:04:07;5.50;99.90
37788;DHT22;23627;53.302;-6.362;2024-01-06T12:06:33;5.50;99.90
37788;DHT22;23627;53.302;-6.362;2024-01-06T12:09:06;5.50;99.90
37788;DHT22;23627;53.302;-6.362;2024-01-06T12:11:34;5.60;99.90
37788;DHT22;23627;53.302;-6.362;2024-01-06T12:14:05;5.60;99.90
37788;DHT22;23627;53.302;-6.362;2024-01-06T12:16:31;5.60;99.90
37788;DHT22;23627;53.302;-6.362;2024-01-06T12:18:58;5.60;99.90
37788;DHT22;23627;53.302;-6.362;2024-01-06T12:21:27;5.70;99.90
37788;DHT22;23627;53.302;-6.362;2024-01-06T12:23:53;5.70;99.90
37788;DHT22;23627;53.302;-6.362;2024-01-06T12:26:19;5.70;99.90
37788;DHT22;23627;53.302;-6.362;2024-01-06T12:28:45;5.70;99.90
37788;DHT22;23627;53.302;-6.362;2024-01-06T12:31:11;5.70;99.90
37788;DHT22;23627;53.302;-6.362;2024-01-06T12:33:40;5.70;99.90
37788;DHT22;23627;53.302;-6.362;2024-01-06T12:36:07;5.70;99.90
37788;DHT22;23627;53.302;-6.362;2024-01-06T12:38:37;5.80;99.90
37788;DHT22;23627;53.302;-6.362;2024-01-06T12:41:06;5.80;99.90
37788;DHT22;23627;53.302;-6.362;2024-01-06T12:43:31;5.80;99.90
37788;DHT22;23627;53.302;-6.362;2024-01-06T12:45:57;5.90;99.90
37788;DHT22;23627;53.302;-6.362;2024-01-06T12:48:24;5.90;99.90
37788;DHT22;23627;53.302;-6.362;2024-01-06T12:50:50;5.90;99.90
37788;DHT22;23627;53.302;-6.362;2024-01-06T12:53:23;5.90;99.90
37788;DHT22;23627;53.302;-6.362;2024-01-06T12:55:49;5.90;99.90
37788;DHT22;23627;53.302;-6.362;2024-01-06T12:58:14;6.00;99.90
37788;DHT22;23627;53.302;-6.362;2024-01-06T13:00:40;6.00;99.90
37788;DHT22;23627;53.302;-6.362;2024-01-06T13:03:06;6.10;99.90
37788;DHT22;23627;53.302;-6.362;2024-01-06T13:05:32;6.10;99.90
37788;DHT22;23627;53.302;-6.362;2024-01-06T13:07:57;6.10;99.90
37788;DHT22;23627;53.302;-6.362;2024-01-06T13:10:23;6.10;99.90
37788;DHT22;23627;53.302;-6.362;2024-01-06T13:12:49;6.20;99.90
37788;DHT22;23627;53.302;-6.362;2024-01-06T13:15:15;6.10;99.90
37788;DHT22;23627;53.302;-6.362;2024-01-06T13:17:41;6.20;99.90
37788;DHT22;23627;53.302;-6.362;2024-01-06T13:20:07;6.20;99.90
37788;DHT22;23627;53.302;-6.362;2024-01-06T13:22:33;6.20;99.90
37788;DHT22;23627;53.302;-6.362;2024-01-06T13:24:59;6.20;99.90
37788;DHT22;23627;53.302;-6.362;2024-01-06T13:27:28;6.20;99.90
37788;DHT22;23627;53.302;-6.362;2024-01-06T13:29:54;6.20;99.90
37788;DHT22;23627;53.302;-6.362;2024-01-06T13:32:20;6.20;99.90
37788;DHT22;23627;53.302;-6.362;2024-01-06T13:34:47;6.20;99.90
37788;DHT22;23627;53.302;-6.362;2024-01-06T13:37:13;6.20;99.90
37788;DHT22;23627;53.302;-6.362;2024-01-06T13:39:39;6.20;99.90
37788;DHT22;23627;53.302;-6.362;2024-01-06T13:42:05;6.20;99.90
37788;DHT22;23627;53.302;-6.362;2024-01-06T13:44:30;6.20;99.90
37788;DHT22;23627;53.302;-6.362;2024-01-06T13:46:56;6.20;99.90
37788;DHT22;23627;53.302;-6.362;2024-01-06T13:49:22;6.20;99.90
37788;DHT22;23627;53.302;-6.362;2024-01-06T13:51:49;6.20;99.90
37788;DHT22;23627;53.302;-6.362;2024-01-06T13:54:15;6.10;99.90
37788;DHT22;23627;53.302;-6.362;2024-01-06T13:56:41;6.20;99.90
37788;DHT22;23627;53.302;-6.362;2024-01-06T13:59:07;6.10;99.90
37788;DHT22;23627;53.302;-6.362;2024-01-06T14:01:33;6.10;99.90
37788;DHT22;23627;53.302;-6.362;2024-01-06T14:03:59;6.10;99.90
37788;DHT22;23627;53.302;-6.362;2024-01-06T14:06:28;6.10;99.90
37788;DHT22;23627;53.302;-6.362;2024-01-06T14:08:59;6.00;99.90
37788;DHT22;23627;53.302;-6.362;2024-01-06T14:11:26;6.00;99.90
37788;DHT22;23627;53.302;-6.362;2024-01-06T14:13:52;6.00;99.90
37788;DHT22;23627;53.302;-6.362;2024-01-06T14:16:19;6.00;99.90
37788;DHT22;23627;53.302;-6.362;2024-01-06T14:18:44;5.90;99.90
37788;DHT22;23627;53.302;-6.362;2024-01-06T14:21:10;5.90;99.90
37788;DHT22;23627;53.302;-6.362;2024-01-06T14:23:37;5.90;99.90
37788;DHT22;23627;53.302;-6.362;2024-01-06T14:26:03;5.80;99.90
37788;DHT22;23627;53.302;-6.362;2024-01-06T14:28:29;5.80;99.90
37788;DHT22;23627;53.302;-6.362;2024-01-06T14:30:55;5.80;99.90
37788;DHT22;23627;53.302;-6.362;2024-01-06T14:33:21;5.80;99.90
37788;DHT22;23627;53.302;-6.362;2024-01-06T14:35:47;5.70;99.90
37788;DHT22;23627;53.302;-6.362;2024-01-06T14:38:13;5.70;99.90
37788;DHT22;23627;53.302;-6.362;2024-01-06T14:40:39;5.70;99.90
37788;DHT22;23627;53.302;-6.362;2024-01-06T14:43:04;5.70;99.90
37788;DHT22;23627;53.302;-6.362;2024-01-06T14:45:31;5.60;99.90
37788;DHT22;23627;53.302;-6.362;2024-01-06T14:47:57;5.60;99.90
37788;DHT22;23627;53.302;-6.362;2024-01-06T14:50:23;5.60;99.90
37788;DHT22;23627;53.302;-6.362;2024-01-06T14:52:49;5.50;99.90
37788;DHT22;23627;53.302;-6.362;2024-01-06T14:55:15;5.50;99.90
37788;DHT22;23627;53.302;-6.362;2024-01-06T14:57:41;5.50;99.90
37788;DHT22;23627;53.302;-6.362;2024-01-06T15:00:07;5.50;99.90
37788;DHT22;23627;53.302;-6.362;2024-01-06T15:02:39;5.40;99.90
37788;DHT22;23627;53.302;-6.362;2024-01-06T15:05:11;5.40;99.90
37788;DHT22;23627;53.302;-6.362;2024-01-06T15:07:37;5.40;99.90
37788;DHT22;23627;53.302;-6.362;2024-01-06T15:10:03;5.40;99.90
37788;DHT22;23627;53.302;-6.362;2024-01-06T15:12:31;5.30;99.90
37788;DHT22;23627;53.302;-6.362;2024-01-06T15:14:57;5.40;99.90
37788;DHT22;23627;53.302;-6.362;2024-01-06T15:17:24;5.30;99.90
37788;DHT22;23627;53.302;-6.362;2024-01-06T15:19:50;5.30;99.90
37788;DHT22;23627;53.302;-6.362;2024-01-06T15:22:16;5.30;99.90
37788;DHT22;23627;53.302;-6.362;2024-01-06T15:24:42;5.30;99.90
37788;DHT22;23627;53.302;-6.362;2024-01-06T15:27:13;5.30;99.90
37788;DHT22;23627;53.302;-6.362;2024-01-06T15:29:39;5.20;99.90
37788;DHT22;23627;53.302;-6.362;2024-01-06T15:32:05;5.20;99.90